Time;durP1;ratioP1;P1;durP2;ratioP2;P2;SDS_P1;SDS_P2;PMS_P1;PMS_P2;Temp;Humidity;BMP_temperature;BMP_pressure;BME280_temperature;BME280_humidity;BME280_pressure;Samples;Min_cycle;Max_cycle;Signal;HPM_P1;HPM_P2
2022/09/30 00:02:17;;;;;;;44.10;28.90;;;;;;;5.78;79.82;97875.83;433665;1268;109193;-40
2022/09/30 00:12:26;;;;;;;45.50;27.30;;;;;;;5.76;80.01;97877.82;433265;1268;99248;-40
2022/09/30 00:22:33;;;;;;;36.70;21.90;;;;;;;5.67;79.93;97876.08;433481;1268;112077;-38
2022/09/30 00:32:40;;;;;;;41.20;24.40;;;;;;;5.62;79.91;97887.27;433610;1268;108860;-41
2022/09/30 00:42:48;;;;;;;41.40;25.40;;;;;;;5.54;79.95;97889.36;433562;1268;99966;-39
2022/09/30 00:52:54;;;;;;;50.60;29.10;;;;;;;5.50;80.27;97885.05;433422;1268;109488;-40
2022/09/30 01:03:01;;;;;;;55.00;31.90;;;;;;;5.44;80.44;97904.82;432838;1269;99251;-40
2022/09/30 01:13:08;;;;;;;39.70;24.50;;;;;;;5.35;80.38;97908.48;433611;1268;112448;-41
2022/09/30 01:23:35;;;;;;;40.10;25.10;;;;;;;5.34;80.28;97918.88;433146;1269;108873;-40
2022/09/30 01:33:52;;;;;;;38.40;23.30;;;;;;;5.38;80.44;97921.71;433483;1258;98116;31
2022/09/30 01:43:58;;;;;;;49.80;31.00;;;;;;;5.25;80.41;97911.86;433907;1267;108007;-40
2022/09/30 01:54:07;;;;;;;54.40;31.80;;;;;;;5.12;80.64;97920.14;433592;1268;99235;-39
2022/09/30 02:04:19;;;;;;;37.90;24.40;;;;;;;5.12;80.73;97913.76;433480;1268;112459;-39
2022/09/30 02:14:32;;;;;;;40.00;23.90;;;;;;;5.24;80.89;97911.31;433963;1267;108931;-39
2022/09/30 02:24:40;;;;;;;39.40;24.00;;;;;;;5.50;81.22;97917.77;433300;1268;99275;-40
2022/09/30 02:34:45;;;;;;;59.80;34.00;;;;;;;5.54;81.15;97928.83;432712;1269;108961;-39
2022/09/30 02:44:56;;;;;;;59.10;34.10;;;;;;;5.50;81.48;97934.30;433804;1268;98010;-39
2022/09/30 02:55:04;;;;;;;51.60;28.70;;;;;;;5.57;81.62;97921.12;432959;1270;111337;-41
2022/09/30 03:05:09;;;;;;;43.50;29.20;;;;;;;5.71;81.51;97937.15;432727;1269;108795;-40
2022/09/30 03:15:30;;;;;;;42.00;26.20;;;;;;;5.74;81.44;97935.23;433698;1268;98844;-40
2022/09/30 03:25:36;;;;;;;44.10;27.70;;;;;;;5.81;81.65;97937.30;433008;1268;108999;-40
2022/09/30 03:35:53;;;;;;;68.70;37.80;;;;;;;5.99;81.87;97949.69;433022;1268;98525;-40
2022/09/30 03:46:04;;;;;;;61.70;37.70;;;;;;;5.90;81.80;97948.21;433026;1268;111983;-39
2022/09/30 03:56:11;;;;;;;38.70;26.20;;;;;;;5.91;81.98;97950.43;433782;1268;109034;-39
2022/09/30 04:06:21;;;;;;;39.80;26.80;;;;;;;6.05;82.18;97951.96;433931;1267;98024;-39
2022/09/30 04:16:30;;;;;;;39.80;26.30;;;;;;;6.20;82.34;97958.56;433015;1268;109060;-38
2022/09/30 04:26:37;;;;;;;50.30;32.60;;;;;;;6.44;82.59;97963.56;433484;1268;98848;-39
2022/09/30 04:36:45;;;;;;;65.60;40.00;;;;;;;6.38;82.21;97964.27;433608;1268;112407;-41
2022/09/30 04:46:53;;;;;;;53.30;32.70;;;;;;;6.27;82.43;97968.19;432934;1268;108803;-40
2022/09/30 04:57:00;;;;;;;43.20;26.20;;;;;;;6.25;82.60;97969.73;433953;1267;99230;-39
2022/09/30 05:07:08;;;;;;;34.20;23.30;;;;;;;6.49;82.88;97985.65;433182;1268;108843;-39
2022/09/30 05:17:15;;;;;;;35.50;23.60;;;;;;;6.67;82.95;97996.14;433758;1268;99217;-40
2022/09/30 05:27:22;;;;;;;34.10;23.20;;;;;;;6.85;82.80;98003.21;433474;1268;112516;-40
2022/09/30 05:37:28;;;;;;;46.80;31.80;;;;;;;7.00;83.04;98015.88;433736;1267;109130;-40
2022/09/30 05:47:36;;;;;;;53.10;31.20;;;;;;;6.99;83.10;98016.34;433852;1267;98831;-40
2022/09/30 05:57:46;;;;;;;35.00;23.30;;;;;;;7.09;83.15;98022.48;432827;1268;108885;-40
2022/09/30 06:07:54;;;;;;;31.20;23.40;;;;;;;7.22;83.24;98026.09;432834;1268;98003;-40
2022/09/30 06:18:01;;;;;;;31.60;21.20;;;;;;;7.41;83.28;98028.42;433154;1268;276365;-40
2022/09/30 06:28:09;;;;;;;29.60;21.00;;;;;;;7.55;83.43;98042.10;433219;1268;108861;-41
2022/09/30 06:38:17;;;;;;;34.30;24.60;;;;;;;7.61;83.31;98041.16;433178;1268;99288;-41
2022/09/30 06:48:24;;;;;;;39.20;23.50;;;;;;;7.61;83.55;98053.22;433314;1268;109113;-40
2022/09/30 07:08:51;;;;;;;32.20;19.40;;;;;;;7.83;83.51;98057.08;433499;1268;112392;-40
2022/09/30 07:39:12;;;;;;;24.50;16.70;;;;;;;8.40;84.37;98090.75;433523;1268;107607;-41
2022/09/30 07:59:27;;;;;;;26.00;16.20;;;;;;;8.66;84.41;98106.34;433633;1268;112616;-41
2022/09/30 08:09:35;;;;;;;36.40;22.90;;;;;;;8.78;84.33;98110.16;433505;1268;108684;-40
2022/09/30 08:19:42;;;;;;;31.70;19.90;;;;;;;8.92;84.34;98108.70;433408;1268;98861;-39
2022/09/30 08:29:50;;;;;;;29.20;19.40;;;;;;;9.07;84.31;98115.05;433687;1269;108953;-40
2022/09/30 08:40:04;;;;;;;25.00;17.00;;;;;;;9.21;84.32;98130.64;433391;1268;99283;-40
2022/09/30 08:50:12;;;;;;;25.50;16.70;;;;;;;9.44;84.39;98129.94;433117;1268;112478;-40
2022/09/30 09:00:21;;;;;;;24.00;16.70;;;;;;;9.63;84.44;98130.02;433900;1268;109109;-41
2022/09/30 09:10:34;;;;;;;23.90;16.20;;;;;;;9.68;84.46;98138.61;433433;1270;98017;-41
2022/09/30 09:20:50;;;;;;;31.60;19.50;;;;;;;9.60;84.54;98138.79;433284;1268;108763;-40
2022/09/30 09:30:57;;;;;;;21.90;15.00;;;;;;;9.61;84.71;98135.96;432810;1268;99144;-41
2022/09/30 09:41:15;;;;;;;17.20;12.20;;;;;;;9.60;85.16;98139.89;433404;1270;112476;-41
2022/09/30 09:51:28;;;;;;;22.10;13.20;;;;;;;9.60;85.30;98147.19;433924;1268;108663;-40
2022/09/30 10:01:38;;;;;;;16.40;12.10;;;;;;;9.68;85.38;98149.02;433410;1270;98809;-41
2022/09/30 10:11:46;;;;;;;19.50;13.30;;;;;;;9.77;85.32;98147.36;433996;1268;109400;-41
2022/09/30 10:22:16;;;;;;;17.60;13.10;;;;;;;9.83;85.47;98152.10;433247;1268;99313;-40
2022/09/30 10:32:25;;;;;;;19.20;13.20;;;;;;;9.99;85.55;98152.01;433515;1268;111354;-39
2022/09/30 10:42:35;;;;;;;19.50;14.50;;;;;;;10.10;85.47;98158.17;433819;1268;109037;-39
2022/09/30 10:52:56;;;;;;;24.10;13.90;;;;;;;10.14;85.60;98166.12;433841;1268;98933;-40
2022/09/30 11:13:16;;;;;;;24.20;15.30;;;;;;;10.15;85.70;98178.98;433001;1268;99232;-40
2022/09/30 11:23:26;;;;;;;19.40;14.00;;;;;;;10.11;85.89;98180.39;433371;1267;112416;-40
2022/09/30 11:33:32;;;;;;;;;;;;;;;10.03;86.01;98182.05;433185;1268;107770;-40
2022/09/30 11:43:38;;;;;;;19.30;13.60;;;;;;;10.00;86.34;98189.98;433932;1268;98809;-40
2022/09/30 11:53:44;;;;;;;17.80;12.80;;;;;;;9.96;86.34;98200.52;433583;1268;107778;-40
2022/09/30 12:03:49;;;;;;;16.50;12.10;;;;;;;9.93;86.48;98207.42;433855;1268;99906;-40
2022/09/30 12:14:01;;;;;;;17.50;12.40;;;;;;;9.93;86.48;98208.79;433878;1268;112365;-40
2022/09/30 12:24:14;;;;;;;17.60;12.10;;;;;;;9.89;86.89;98209.87;433561;1268;109150;-40
2022/09/30 12:34:32;;;;;;;16.90;12.70;;;;;;;9.80;86.95;98206.03;434051;1268;99333;-40
2022/09/30 12:45:06;;;;;;;17.30;13.50;;;;;;;9.80;87.26;98219.23;433375;1268;108245;-39
2022/09/30 13:15:50;;;;;;;14.90;11.60;;;;;;;9.78;87.77;98232.98;433237;1268;107634;-40
2022/09/30 13:25:57;;;;;;;17.90;12.70;;;;;;;9.79;87.78;98244.24;433722;1268;98020;-40
2022/09/30 13:36:15;;;;;;;13.80;11.80;;;;;;;9.82;88.12;98247.05;433646;1268;108821;-39
2022/09/30 13:46:23;;;;;;;15.00;11.40;;;;;;;9.95;88.07;98254.33;433850;1268;98959;-41
2022/09/30 13:56:34;;;;;;;15.70;10.00;;;;;;;10.00;88.05;98253.73;433529;1268;111728;-39
2022/09/30 14:06:47;;;;;;;15.20;12.20;;;;;;;10.02;88.12;98251.45;433671;1268;106699;-40
2022/09/30 14:17:15;;;;;;;17.80;11.80;;;;;;;10.02;88.05;98255.20;433212;1269;99271;-41
2022/09/30 14:27:41;;;;;;;16.40;12.10;;;;;;;9.94;87.90;98256.30;433627;1270;109649;-39
2022/09/30 14:37:46;;;;;;;18.00;12.50;;;;;;;9.97;88.04;98260.92;433313;1270;99386;-40
2022/09/30 14:47:57;;;;;;;23.30;12.90;;;;;;;9.90;87.89;98257.91;433451;1268;113123;-40
2022/09/30 14:58:17;;;;;;;17.40;12.00;;;;;;;9.79;88.00;98259.40;433459;1268;108363;-41
2022/09/30 15:08:24;;;;;;;14.40;11.00;;;;;;;9.79;87.96;98268.21;433634;1268;98851;-41
2022/09/30 15:28:40;;;;;;;;;;;;;;;9.55;88.12;98281.95;433715;1268;98039;-40
2022/09/30 15:38:47;;;;;;;15.30;11.90;;;;;;;9.46;88.18;98299.34;433450;1268;111277;-40
2022/09/30 15:48:54;;;;;;;18.50;14.10;;;;;;;9.47;88.42;98314.04;433282;1268;108638;-39
2022/09/30 15:59:00;;;;;;;23.50;13.90;;;;;;;9.50;88.27;98313.59;433284;1268;97947;-40
2022/09/30 16:19:25;;;;;;;19.20;14.40;;;;;;;9.45;88.44;98307.26;433445;1269;98772;-39
2022/09/30 16:29:33;;;;;;;23.80;15.10;;;;;;;9.55;88.53;98320.19;433567;1268;112375;-40
2022/09/30 16:39:41;;;;;;;21.40;15.50;;;;;;;9.64;88.44;98335.95;433414;1268;109335;-40
2022/09/30 16:49:49;;;;;;;23.90;15.00;;;;;;;9.64;88.35;98332.77;433396;1268;98802;-40
2022/09/30 16:59:57;;;;;;;23.20;17.30;;;;;;;9.70;88.31;98342.64;433644;1268;108924;-40
2022/09/30 17:10:04;;;;;;;22.50;17.10;;;;;;;9.62;88.16;98338.27;432878;1268;99279;-40
2022/09/30 17:20:09;;;;;;;30.10;19.60;;;;;;;9.56;88.34;98354.41;433031;1268;111364;-40
2022/09/30 17:30:20;;;;;;;29.00;20.70;;;;;;;9.50;88.26;98363.93;433790;1268;107971;-39
2022/09/30 17:50:54;;;;;;;32.40;21.80;;;;;;;9.45;88.55;98361.14;433402;1268;108643;-40
2022/09/30 18:01:06;;;;;;;30.20;20.60;;;;;;;9.47;88.55;98363.02;433623;1268;99270;-40
2022/09/30 18:11:19;;;;;;;35.60;20.90;;;;;;;9.51;88.59;98372.98;433633;1268;112782;-39
2022/09/30 18:21:27;;;;;;;32.50;20.50;;;;;;;9.47;88.49;98393.55;433519;1268;168465;-40
2022/09/30 18:31:37;;;;;;;47.20;24.60;;;;;;;9.52;88.62;98403.79;433854;1268;98275;-38
2022/09/30 18:41:47;;;;;;;42.10;22.40;;;;;;;9.61;88.71;98417.88;433764;1270;108953;-39
2022/09/30 18:51:55;;;;;;;43.00;24.70;;;;;;;9.77;88.64;98433.42;433626;1268;99236;-39
2022/09/30 19:02:03;;;;;;;50.20;27.80;;;;;;;9.83;88.81;98437.94;433550;1268;111904;-39
2022/09/30 19:12:12;;;;;;;49.10;26.30;;;;;;;9.73;88.61;98447.63;433771;1268;108951;-39
2022/09/30 19:42:36;;;;;;;38.50;21.10;;;;;;;9.39;88.43;98403.30;433429;1267;99917;-42
2022/09/30 19:52:45;;;;;;;44.90;22.90;;;;;;;9.35;88.62;98394.19;433819;1267;112391;-40
2022/09/30 20:03:05;;;;;;;42.20;25.00;;;;;;;9.35;88.80;98389.92;433846;1267;108899;-39
2022/09/30 20:13:16;;;;;;;49.80;25.40;;;;;;;9.41;88.96;98407.68;433842;1267;98352;-39
2022/09/30 20:23:21;;;;;;;;;;;;;;;9.44;88.89;98396.79;433122;1267;108935;-40
2022/09/30 20:33:28;;;;;;;48.20;25.60;;;;;;;9.42;88.96;98393.23;433884;1267;99136;-40
2022/09/30 20:43:35;;;;;;;48.80;27.40;;;;;;;9.38;88.87;98397.42;433847;1267;112373;-40
2022/09/30 20:53:43;;;;;;;56.80;26.90;;;;;;;9.43;89.24;98401.81;433327;1268;109003;-40
2022/09/30 21:03:55;;;;;;;45.20;23.30;;;;;;;9.53;89.02;98407.70;433990;1267;98828;-40
2022/09/30 21:14:02;;;;;;;49.20;26.00;;;;;;;9.67;89.20;98404.45;433343;1267;108905;-40
2022/09/30 21:24:08;;;;;;;62.00;30.50;;;;;;;9.81;89.15;98402.52;433961;1267;99237;-40
2022/09/30 21:34:16;;;;;;;60.10;28.10;;;;;;;9.90;89.33;98404.42;433689;1268;112354;-40
2022/09/30 21:44:24;;;;;;;60.70;28.20;;;;;;;9.76;89.17;98394.10;433848;1268;108750;-40
2022/09/30 21:54:31;;;;;;;62.20;30.20;;;;;;;9.60;89.04;98378.27;433814;1268;98036;-38
2022/09/30 22:14:43;;;;;;;65.30;30.60;;;;;;;9.58;89.17;98383.13;433420;1268;99247;-40
2022/09/30 22:24:51;;;;;;;76.70;31.20;;;;;;;9.60;89.20;98380.73;433837;1267;112889;-40
2022/09/30 22:45:23;;;;;;;70.60;30.10;;;;;;;9.59;89.36;98375.80;433619;1268;98519;-40
2022/09/30 22:55:32;;;;;;;79.50;36.30;;;;;;;9.74;89.73;98378.27;433881;1266;108970;-40
2022/09/30 23:05:39;;;;;;;72.40;31.50;;;;;;;9.66;89.22;98354.85;433819;1268;99262;-40
2022/09/30 23:15:46;;;;;;;59.10;26.10;;;;;;;9.64;89.56;98356.11;434058;1268;112677;-39
2022/09/30 23:25:58;;;;;;;56.90;23.70;;;;;;;9.67;89.48;98376.99;433998;1268;108957;-38
2022/09/30 23:36:07;;;;;;;58.60;25.10;;;;;;;9.67;89.63;98381.52;434096;1268;98859;-38
2022/09/30 23:46:15;;;;;;;61.80;26.70;;;;;;;9.75;89.91;98381.45;434068;1267;108826;-40
2022/09/30 23:56:22;;;;;;;56.90;25.80;;;;;;;9.94;89.82;98384.34;433307;1267;99292;-40
